Time;durP1;ratioP1;P1;durP2;ratioP2;P2;SDS_P1;SDS_P2;PMS_P1;PMS_P2;Temp;Humidity;BMP_temperature;BMP_pressure;BME280_temperature;BME280_humidity;BME280_pressure;Samples;Min_cycle;Max_cycle;Signal;HPM_P1;HPM_P2
2022/08/04 00:00:07;;;;;;;3.80;1.77;;;;;;;24.71;51.46;99207.81;342503;28;1106;-67
2022/08/04 00:00:19;;;;;;;2.45;1.73;;;;;;;24.69;51.52;99209.78;342302;28;1701;-67
2022/08/04 00:00:38;;;;;;;3.03;1.77;;;;;;;24.70;51.18;99211.44;342631;28;1070;-67
2022/08/04 00:01:02;;;;;;;2.47;1.67;;;;;;;24.72;51.05;99215.59;341280;28;1287;-67
2022/08/04 00:01:22;;;;;;;2.22;1.80;;;;;;;24.77;50.73;99216.97;341887;28;1920;-67
2022/08/04 00:01:44;;;;;;;2.35;1.98;;;;;;;24.76;50.57;99215.31;341946;28;1595;-67
2022/08/04 00:02:22;;;;;;;3.78;2.00;;;;;;;24.69;50.82;99221.25;341094;28;1229;-67
2022/08/04 00:02:40;;;;;;;1.83;1.67;;;;;;;24.67;50.58;99217.03;341906;28;1892;-67
2022/08/04 00:03:11;;;;;;;1.70;1.60;;;;;;;24.66;51.37;99215.38;341904;28;1611;-67
2022/08/04 00:03:27;;;;;;;3.30;1.60;;;;;;;24.67;51.52;99212.59;342190;28;1620;-67
2022/08/04 00:03:54;;;;;;;2.08;1.70;;;;;;;24.70;51.43;99214.91;341321;28;1291;-67
2022/08/04 00:04:18;;;;;;;1.80;1.70;;;;;;;24.73;51.55;99211.16;340565;28;1051;-67
2022/08/04 00:04:57;;;;;;;5.03;1.90;;;;;;;24.72;51.43;99209.47;341472;28;1842;-67
2022/08/04 00:05:29;;;;;;;3.22;1.67;;;;;;;24.70;51.29;99212.25;341828;28;2493;-67
2022/08/04 00:05:41;;;;;;;3.90;1.60;;;;;;;24.67;51.45;99212.59;341980;28;1877;-67
2022/08/04 00:06:03;;;;;;;4.30;1.67;;;;;;;24.65;51.56;99219.88;341199;28;1720;-67
2022/08/04 00:06:53;;;;;;;2.25;1.70;;;;;;;24.65;51.49;99208.38;342111;28;1565;-67
2022/08/04 00:07:34;;;;;;;2.97;1.70;;;;;;;24.61;51.81;99210.53;342602;28;1097;-67
2022/08/04 00:08:19;;;;;;;2.20;1.63;;;;;;;24.64;51.50;99212.88;341106;28;1345;-67
2022/08/04 00:08:43;;;;;;;5.00;1.80;;;;;;;24.63;51.34;99213.00;341532;28;1768;-67
2022/08/04 00:09:06;;;;;;;3.35;1.73;;;;;;;24.65;51.06;99211.91;342470;28;1030;-67
2022/08/04 00:09:42;;;;;;;1.95;1.60;;;;;;;24.66;51.42;99210.91;341183;28;1797;-67
2022/08/04 00:09:59;;;;;;;2.65;1.70;;;;;;;24.68;51.00;99213.41;342427;28;1386;-67
2022/08/04 00:10:15;;;;;;;2.00;1.80;;;;;;;24.64;50.90;99207.56;341024;28;1113;-67
2022/08/04 00:10:27;;;;;;;2.40;1.70;;;;;;;24.63;50.76;99211.22;342033;28;1846;-67
2022/08/04 00:10:44;;;;;;;2.28;1.60;;;;;;;24.63;51.00;99216.53;342527;28;1165;-67
2022/08/04 00:10:59;;;;;;;1.77;1.67;;;;;;;24.66;50.85;99212.72;342325;28;1662;-67
2022/08/04 00:11:18;;;;;;;1.80;1.70;;;;;;;24.68;50.86;99214.25;342650;28;1078;-67
2022/08/04 00:11:32;;;;;;;2.60;1.60;;;;;;;24.69;50.92;99207.13;342232;28;1872;-67
2022/08/04 00:11:48;;;;;;;2.90;1.65;;;;;;;24.67;51.12;99207.28;342620;28;1046;-67
2022/08/04 00:12:01;;;;;;;2.50;1.88;;;;;;;24.68;51.66;99216.91;342226;28;1304;-67
2022/08/04 00:12:15;;;;;;;2.15;1.90;;;;;;;24.70;51.44;99208.78;342526;28;1146;-67
2022/08/04 00:12:32;;;;;;;2.00;1.80;;;;;;;24.69;51.71;99212.44;342301;28;1020;-67
2022/08/04 00:12:53;;;;;;;2.95;1.75;;;;;;;24.71;51.87;99210.47;339719;29;1091;-67
2022/08/04 00:13:07;;;;;;;3.42;1.70;;;;;;;24.71;52.37;99208.63;340603;29;1577;-67
2022/08/04 00:13:25;;;;;;;2.65;1.80;;;;;;;24.71;52.06;99213.13;340224;29;1600;-67
2022/08/04 00:13:38;;;;;;;1.85;1.60;;;;;;;24.71;51.90;99211.28;340875;29;1203;-67
2022/08/04 00:14:15;;;;;;;3.45;1.90;;;;;;;24.70;51.30;99212.25;338703;29;1341;-66
2022/08/04 00:14:31;;;;;;;2.17;1.70;;;;;;;24.69;51.18;99215.94;341641;28;1387;-67
2022/08/04 00:14:52;;;;;;;2.58;1.77;;;;;;;24.69;51.37;99215.94;342391;28;1030;-67
2022/08/04 00:15:05;;;;;;;3.28;1.63;;;;;;;24.69;51.49;99210.59;342413;28;1316;-67
2022/08/04 00:15:18;;;;;;;2.85;1.70;;;;;;;24.69;51.49;99215.94;342570;28;1170;-67
2022/08/04 00:15:32;;;;;;;2.25;1.80;;;;;;;24.67;51.51;99212.59;342464;28;1091;-67
2022/08/04 00:15:45;;;;;;;1.80;1.70;;;;;;;24.66;51.96;99208.25;342378;28;1074;-67
2022/08/04 00:16:03;;;;;;;1.70;1.60;;;;;;;24.66;51.95;99204.75;342228;28;1174;-67
2022/08/04 00:16:16;;;;;;;1.98;1.67;;;;;;;24.62;51.99;99209.53;341799;28;1838;-67
2022/08/04 00:16:31;;;;;;;3.83;1.73;;;;;;;24.62;52.09;99209.53;341683;28;1839;-67
2022/08/04 00:16:51;;;;;;;4.57;1.83;;;;;;;24.62;52.45;99209.53;342155;28;1180;-67
2022/08/04 00:17:05;;;;;;;4.50;1.70;;;;;;;24.63;52.08;99215.66;342034;28;1299;-67
2022/08/04 00:17:22;;;;;;;3.90;1.60;;;;;;;24.61;51.71;99213.19;341754;28;1773;-67
2022/08/04 00:18:06;;;;;;;3.45;1.67;;;;;;;24.62;51.87;99214.00;341982;28;1833;-67
2022/08/04 00:18:24;;;;;;;4.00;1.63;;;;;;;24.62;52.07;99209.53;341553;28;1494;-67
2022/08/04 00:18:41;;;;;;;3.08;1.70;;;;;;;24.61;51.22;99210.53;341130;28;1420;-67
2022/08/04 00:18:57;;;;;;;2.38;1.70;;;;;;;24.61;50.92;99213.19;341135;28;1195;-67
2022/08/04 00:19:10;;;;;;;2.10;1.90;;;;;;;24.60;51.34;99214.16;341142;28;2362;-67
2022/08/04 00:19:39;;;;;;;3.90;1.90;;;;;;;24.60;51.73;99211.50;341568;28;1839;-67
2022/08/04 00:19:58;;;;;;;2.90;1.85;;;;;;;24.60;51.96;99210.69;340904;28;1890;-67
2022/08/04 00:20:16;;;;;;;2.97;1.67;;;;;;;24.61;51.24;99212.31;341713;28;1919;-67
2022/08/04 00:20:31;;;;;;;2.67;1.70;;;;;;;24.61;51.13;99215.84;342804;28;1860;-67
2022/08/04 00:20:44;;;;;;;5.20;1.88;;;;;;;24.58;51.46;99213.47;343165;28;1394;-66
2022/08/04 00:21:02;;;;;;;4.55;1.85;;;;;;;24.55;51.42;99208.47;340928;28;1244;-67
2022/08/04 00:21:17;;;;;;;2.60;1.70;;;;;;;24.58;51.32;99216.13;342137;28;1055;-67
2022/08/04 00:21:37;;;;;;;2.78;1.63;;;;;;;24.57;51.33;99206.50;341708;28;1655;-67
2022/08/04 00:22:10;;;;;;;3.40;1.67;;;;;;;24.59;51.57;99201.88;340779;29;1093;-67
2022/08/04 00:22:26;;;;;;;4.30;1.88;;;;;;;24.59;50.77;99204.53;341226;28;1745;-67
2022/08/04 00:22:42;;;;;;;2.90;1.70;;;;;;;24.59;50.35;99209.84;342214;28;965;-67
2022/08/04 00:22:54;;;;;;;2.47;1.75;;;;;;;24.58;50.37;99207.34;341977;28;1989;-67
2022/08/04 00:23:08;;;;;;;2.67;1.70;;;;;;;24.59;50.14;99201.00;342292;28;1486;-67
2022/08/04 00:23:22;;;;;;;2.47;1.70;;;;;;;24.59;50.83;99208.97;341167;28;1209;-68
2022/08/04 00:23:35;;;;;;;2.65;1.70;;;;;;;24.58;50.71;99208.16;341148;28;1058;-67
2022/08/04 00:24:08;;;;;;;2.95;1.70;;;;;;;24.58;50.32;99202.03;340815;29;1364;-67
2022/08/04 00:24:23;;;;;;;3.20;1.70;;;;;;;24.57;50.39;99209.16;341345;28;1753;-67
2022/08/04 00:24:37;;;;;;;2.78;1.73;;;;;;;24.58;50.32;99200.19;342481;28;1801;-67
2022/08/04 00:24:49;;;;;;;2.05;1.77;;;;;;;24.57;50.76;99203.84;341443;28;1629;-67
2022/08/04 00:25:03;;;;;;;1.75;1.65;;;;;;;24.58;51.42;99202.84;341833;28;1409;-67
2022/08/04 00:25:15;;;;;;;2.58;1.70;;;;;;;24.59;50.70;99207.19;341609;28;1756;-67
2022/08/04 00:25:28;;;;;;;3.42;1.80;;;;;;;24.59;50.12;99204.53;341708;28;1891;-67
2022/08/04 00:25:40;;;;;;;3.88;1.90;;;;;;;24.58;49.80;99207.34;340966;29;1218;-67
2022/08/04 00:25:53;;;;;;;2.83;1.73;;;;;;;24.59;50.06;99204.53;341812;28;1067;-67
2022/08/04 00:26:05;;;;;;;2.45;1.63;;;;;;;24.60;50.21;99205.34;341965;28;1903;-67
2022/08/04 00:26:18;;;;;;;1.67;1.58;;;;;;;24.57;50.36;99203.84;341827;28;1839;-67
2022/08/04 00:26:32;;;;;;;3.72;1.50;;;;;;;24.58;50.20;99202.84;341745;28;1962;-67
2022/08/04 00:26:44;;;;;;;4.32;1.60;;;;;;;24.58;49.87;99202.03;342269;28;1540;-67
2022/08/04 00:26:57;;;;;;;5.25;1.83;;;;;;;24.58;49.82;99205.50;342955;28;1331;-67
2022/08/04 00:27:10;;;;;;;4.75;1.85;;;;;;;24.59;49.75;99201.88;342147;28;1254;-67
2022/08/04 00:27:22;;;;;;;3.58;1.70;;;;;;;24.59;50.07;99204.53;341361;28;1735;-67
2022/08/04 00:27:35;;;;;;;1.85;1.70;;;;;;;24.60;49.98;99202.69;341948;28;1896;-67
2022/08/04 00:27:48;;;;;;;1.80;1.70;;;;;;;24.58;49.80;99202.03;342189;28;1023;-67
2022/08/04 00:28:00;;;;;;;2.00;1.63;;;;;;;24.59;49.81;99199.22;342401;28;1314;-67
2022/08/04 00:28:13;;;;;;;1.60;1.50;;;;;;;24.60;50.00;99192.91;342508;28;1055;-67
2022/08/04 00:28:26;;;;;;;1.98;1.50;;;;;;;24.61;50.20;99197.25;341926;28;1379;-67
2022/08/04 00:28:39;;;;;;;2.60;1.60;;;;;;;24.59;49.88;99199.22;341358;28;1267;-67
2022/08/04 00:28:51;;;;;;;2.65;1.60;;;;;;;24.57;49.84;99201.19;341997;28;1510;-67
2022/08/04 00:29:04;;;;;;;3.00;1.60;;;;;;;24.59;49.81;99203.66;342004;28;1295;-67
2022/08/04 00:29:16;;;;;;;5.30;2.10;;;;;;;24.58;50.11;99202.03;342834;28;1862;-67
2022/08/04 00:29:30;;;;;;;5.72;2.10;;;;;;;24.55;50.40;99197.84;343036;28;1545;-67
2022/08/04 00:29:42;;;;;;;3.30;1.77;;;;;;;24.55;50.27;99197.84;343498;28;1114;-67
2022/08/04 00:29:55;;;;;;;2.80;1.80;;;;;;;24.53;49.70;99199.81;343563;28;1005;-67
2022/08/04 00:30:08;;;;;;;2.75;1.73;;;;;;;24.54;49.70;99203.31;342887;28;1893;-67
2022/08/04 00:30:20;;;;;;;2.35;1.52;;;;;;;24.54;49.59;99193.50;342896;28;2157;-67
2022/08/04 00:30:32;;;;;;;2.28;1.52;;;;;;;24.52;49.57;99198.13;343584;28;1361;-67
2022/08/04 00:30:45;;;;;;;4.05;1.60;;;;;;;24.52;50.03;99198.97;342396;28;1067;-67
2022/08/04 00:30:57;;;;;;;4.00;1.63;;;;;;;24.52;49.83;99200.78;341023;29;1196;-67
2022/08/04 00:31:10;;;;;;;3.17;1.60;;;;;;;24.52;49.56;99196.31;341221;29;1060;-67
2022/08/04 00:31:27;;;;;;;2.75;1.70;;;;;;;24.54;49.57;99195.34;340790;29;1727;-67
2022/08/04 00:32:01;;;;;;;2.85;1.90;;;;;;;24.55;49.17;99199.66;340045;29;1411;-67
2022/08/04 00:32:16;;;;;;;3.17;1.92;;;;;;;24.57;48.86;99203.00;341036;29;1140;-67
2022/08/04 00:32:45;;;;;;;2.72;1.67;;;;;;;24.58;48.93;99202.03;341402;28;1176;-67
2022/08/04 00:32:59;;;;;;;3.20;1.80;;;;;;;24.60;49.58;99205.34;342253;28;1685;-67
2022/08/04 00:33:17;;;;;;;3.00;1.70;;;;;;;24.60;49.24;99200.03;343172;28;1673;-67
2022/08/04 00:33:29;;;;;;;2.65;1.52;;;;;;;24.60;48.95;99200.88;341208;28;1957;-67
2022/08/04 00:33:45;;;;;;;2.40;1.60;;;;;;;24.59;49.57;99204.53;342632;28;1187;-67
2022/08/04 00:33:58;;;;;;;2.15;1.70;;;;;;;24.58;49.72;99208.16;341998;28;1903;-67
2022/08/04 00:34:12;;;;;;;3.00;1.70;;;;;;;24.56;49.81;99204.81;341509;28;1745;-67
2022/08/04 00:34:27;;;;;;;3.05;1.73;;;;;;;24.55;50.12;99199.66;341008;28;2268;-67
2022/08/04 00:34:40;;;;;;;2.00;1.70;;;;;;;24.56;50.22;99199.50;342158;28;1442;-67
2022/08/04 00:34:54;;;;;;;3.03;1.83;;;;;;;24.54;50.24;99201.47;342520;28;1414;-67
2022/08/04 00:35:08;;;;;;;3.03;1.83;;;;;;;24.52;50.21;99201.63;341114;28;1015;-67
2022/08/04 00:35:20;;;;;;;1.77;1.67;;;;;;;24.52;50.19;99198.13;341010;28;2075;-67
2022/08/04 00:35:33;;;;;;;1.58;1.48;;;;;;;24.52;49.92;99198.13;341631;28;1956;-67
2022/08/04 00:35:47;;;;;;;1.70;1.60;;;;;;;24.51;50.42;99201.78;342133;28;1194;-67
2022/08/04 00:35:59;;;;;;;2.13;1.92;;;;;;;24.52;50.40;99203.44;340879;28;1329;-67
2022/08/04 00:36:12;;;;;;;2.80;2.00;;;;;;;24.51;50.61;99197.31;340278;29;2135;-67
2022/08/04 00:36:25;;;;;;;3.00;1.90;;;;;;;24.52;50.47;99192.81;340333;28;2329;-67
2022/08/04 00:36:39;;;;;;;1.95;1.73;;;;;;;24.53;50.31;99197.16;340579;29;2015;-67
2022/08/04 00:36:53;;;;;;;1.73;1.50;;;;;;;24.54;50.50;99195.34;340886;29;1394;-67
2022/08/04 00:37:05;;;;;;;2.10;1.60;;;;;;;24.54;50.58;99201.47;340930;29;1389;-67
2022/08/04 00:37:21;;;;;;;2.33;1.70;;;;;;;24.54;50.77;99201.47;340095;28;1861;-67
2022/08/04 00:37:36;;;;;;;3.20;1.70;;;;;;;24.53;50.92;99202.47;342296;28;1580;-67
2022/08/04 00:37:48;;;;;;;3.45;1.70;;;;;;;24.51;50.54;99199.13;342291;28;956;-67
2022/08/04 00:38:01;;;;;;;2.42;1.70;;;;;;;24.50;50.68;99200.09;342077;28;1326;-67
2022/08/04 00:38:16;;;;;;;1.80;1.70;;;;;;;24.50;50.85;99195.63;342530;28;1035;-68
2022/08/04 00:38:28;;;;;;;1.77;1.67;;;;;;;24.51;50.52;99199.13;342093;28;1827;-67
2022/08/04 00:38:42;;;;;;;2.90;1.60;;;;;;;24.50;51.07;99200.09;342484;28;1177;-67
2022/08/04 00:38:55;;;;;;;3.00;1.60;;;;;;;24.52;50.91;99193.66;342452;28;1284;-67
2022/08/04 00:39:11;;;;;;;2.15;1.63;;;;;;;24.54;50.67;99198.00;342417;28;1336;-67
2022/08/04 00:39:24;;;;;;;2.47;1.70;;;;;;;24.51;51.13;99202.63;340631;28;2022;-67
2022/08/04 00:39:39;;;;;;;2.70;1.60;;;;;;;24.51;50.65;99199.13;342461;28;1348;-67
2022/08/04 00:39:54;;;;;;;3.92;1.65;;;;;;;24.48;50.92;99192.25;341735;28;1970;-67
2022/08/04 00:40:21;;;;;;;3.47;1.70;;;;;;;24.50;50.63;99200.09;341232;28;1274;-67
2022/08/04 00:40:57;;;;;;;4.30;1.80;;;;;;;24.50;50.62;99202.75;342158;28;2087;-67
2022/08/04 00:41:25;;;;;;;2.25;1.92;;;;;;;24.46;51.11;99198.72;342373;28;1108;-67
2022/08/04 00:41:46;;;;;;;2.55;1.83;;;;;;;24.45;50.96;99197.06;341884;28;1185;-66
2022/08/04 00:42:20;;;;;;;4.05;1.75;;;;;;;24.46;51.09;99193.41;341111;28;1218;-67
2022/08/04 00:43:11;;;;;;;3.75;1.88;;;;;;;24.48;51.69;99196.72;341460;28;1827;-67
2022/08/04 00:43:31;;;;;;;3.15;1.80;;;;;;;24.45;51.41;99192.56;341516;28;2009;-67
2022/08/04 00:44:16;;;;;;;3.25;1.83;;;;;;;24.45;51.52;99199.72;341981;28;1304;-67
2022/08/04 00:45:03;;;;;;;2.53;1.50;;;;;;;24.48;50.51;99199.38;341874;28;1850;-67
2022/08/04 00:45:18;;;;;;;2.80;2.03;;;;;;;24.50;49.79;99200.94;341844;28;2237;-67
2022/08/04 00:46:01;;;;;;;3.92;2.00;;;;;;;24.49;48.86;99199.25;341447;28;1060;-67
2022/08/04 00:46:38;;;;;;;2.50;1.70;;;;;;;24.47;49.64;99195.91;342183;28;1827;-67
2022/08/04 00:47:11;;;;;;;3.47;1.75;;;;;;;24.50;48.64;99202.75;342350;28;1717;-67
2022/08/04 00:47:39;;;;;;;2.63;1.52;;;;;;;24.47;48.54;99203.88;341633;28;1996;-66
2022/08/04 00:48:00;;;;;;;1.90;1.70;;;;;;;24.45;48.59;99192.56;341787;28;1857;-66
2022/08/04 00:48:41;;;;;;;1.80;1.70;;;;;;;24.47;49.73;99200.41;341080;28;1107;-67
2022/08/04 00:49:11;;;;;;;3.30;1.60;;;;;;;24.43;49.46;99199.03;340919;28;1039;-67
2022/08/04 00:49:23;;;;;;;3.08;1.75;;;;;;;24.37;50.07;99204.91;341256;28;1704;-67
2022/08/04 00:50:08;;;;;;;3.33;1.80;;;;;;;24.36;49.66;99203.25;342230;28;1359;-67
2022/08/04 00:50:53;;;;;;;1.70;1.60;;;;;;;24.39;49.94;99202.94;341681;28;1354;-67
2022/08/04 00:51:29;;;;;;;2.80;2.03;;;;;;;24.38;49.72;99199.44;341344;28;1079;-67
2022/08/04 00:52:00;;;;;;;3.78;1.80;;;;;;;24.40;50.80;99204.63;341430;28;1265;-67
2022/08/04 00:52:35;;;;;;;2.20;1.67;;;;;;;24.36;50.25;99197.94;342399;28;1644;-66
2022/08/04 00:53:13;;;;;;;3.03;1.70;;;;;;;24.28;51.17;99202.16;341257;28;1780;-66
2022/08/04 00:53:35;;;;;;;1.80;1.70;;;;;;;24.24;51.68;99203.44;341191;28;1239;-66
2022/08/04 00:53:53;;;;;;;2.45;1.80;;;;;;;24.26;51.93;99209.44;341558;28;1802;-66
2022/08/04 00:54:13;;;;;;;2.88;1.80;;;;;;;24.31;50.85;99206.38;342260;28;1346;-66
2022/08/04 00:54:36;;;;;;;3.05;1.85;;;;;;;24.33;49.84;99207.88;341683;28;1791;-66
2022/08/04 00:55:03;;;;;;;2.75;1.90;;;;;;;24.31;49.11;99201.88;341688;28;1995;-66
2022/08/04 00:55:44;;;;;;;2.17;1.90;;;;;;;24.33;49.13;99205.22;341330;28;1746;-66
2022/08/04 00:56:29;;;;;;;3.28;2.10;;;;;;;24.28;49.95;99204.81;341946;28;1738;-66
2022/08/04 00:57:02;;;;;;;2.22;1.70;;;;;;;24.32;50.13;99214.16;341259;28;1709;-66
2022/08/04 00:57:30;;;;;;;5.30;1.80;;;;;;;24.30;50.45;99205.50;342536;28;1149;-66
2022/08/04 00:58:15;;;;;;;3.50;1.80;;;;;;;24.26;49.37;99198.00;342044;28;1043;-66
2022/08/04 00:59:09;;;;;;;1.85;1.75;;;;;;;24.18;49.56;99201.38;342109;28;1534;-66
2022/08/04 00:59:39;;;;;;;3.22;1.92;;;;;;;24.20;49.12;99204.72;340805;28;1894;-66
2022/08/04 01:00:08;;;;;;;6.10;1.70;;;;;;;24.23;49.47;99199.13;342447;28;1142;-66
2022/08/04 01:00:20;;;;;;;4.70;1.80;;;;;;;24.26;50.91;99205.97;340622;29;1592;-66
2022/08/04 01:00:46;;;;;;;3.05;1.52;;;;;;;24.26;51.15;99209.44;340677;29;1436;-66
2022/08/04 01:01:03;;;;;;;4.10;1.60;;;;;;;24.27;50.20;99211.13;339987;29;1417;-66
2022/08/04 01:01:38;;;;;;;1.98;1.58;;;;;;;24.24;49.55;99208.75;340886;29;955;-66
2022/08/04 01:02:05;;;;;;;2.05;1.80;;;;;;;24.18;50.41;99204.03;340096;29;1032;-66
2022/08/04 01:02:39;;;;;;;2.80;1.67;;;;;;;24.19;49.79;99200.41;341846;28;1536;-66
2022/08/04 01:02:59;;;;;;;2.92;1.77;;;;;;;24.18;50.22;99201.38;341427;28;1608;-66
2022/08/04 01:03:49;;;;;;;3.88;1.80;;;;;;;24.17;50.24;99202.38;341559;28;1794;-66
2022/08/04 01:04:16;;;;;;;2.40;1.80;;;;;;;24.12;50.34;99210.78;341787;28;1328;-66
2022/08/04 01:04:39;;;;;;;2.65;1.63;;;;;;;24.08;49.58;99212.06;341657;28;2455;-66
2022/08/04 01:05:25;;;;;;;2.45;1.60;;;;;;;24.07;49.86;99209.56;341816;28;1198;-66
2022/08/04 01:05:55;;;;;;;4.35;1.83;;;;;;;24.10;49.93;99210.09;340864;28;1292;-67
2022/08/04 01:06:13;;;;;;;3.35;2.00;;;;;;;24.06;49.50;99214.03;342431;28;1188;-67
2022/08/04 01:06:48;;;;;;;3.20;2.00;;;;;;;24.05;49.66;99207.06;341166;28;1810;-66
2022/08/04 01:07:24;;;;;;;2.30;1.83;;;;;;;24.05;49.37;99203.56;341590;28;1874;-66
2022/08/04 01:07:54;;;;;;;3.00;2.00;;;;;;;23.93;49.83;99214.38;342259;28;1148;-66
2022/08/04 01:08:14;;;;;;;2.80;1.90;;;;;;;23.90;50.15;99216.47;341757;28;1910;-67
2022/08/04 01:08:56;;;;;;;3.70;1.83;;;;;;;23.92;50.45;99212.72;341449;28;1835;-66
2022/08/04 01:09:21;;;;;;;4.25;1.85;;;;;;;23.93;49.72;99210.88;341099;28;1051;-66
2022/08/04 01:09:41;;;;;;;2.92;1.70;;;;;;;23.94;49.87;99212.53;341297;28;1223;-66
2022/08/04 01:10:28;;;;;;;2.40;1.80;;;;;;;23.87;50.14;99214.94;341178;28;1343;-66
2022/08/04 01:10:57;;;;;;;2.72;1.63;;;;;;;23.87;50.01;99214.94;338481;29;1871;-66
2022/08/04 01:11:42;;;;;;;4.60;1.80;;;;;;;23.86;49.92;99209.78;341845;28;1748;-66
2022/08/04 01:12:29;;;;;;;2.92;1.70;;;;;;;23.85;50.72;99221.41;341031;28;1136;-66
2022/08/04 01:13:02;;;;;;;3.00;1.88;;;;;;;23.85;50.83;99219.56;340804;28;1107;-66
2022/08/04 01:13:51;;;;;;;2.70;1.80;;;;;;;23.82;50.44;99217.19;340737;28;2195;-66
2022/08/04 01:14:50;;;;;;;1.92;1.60;;;;;;;23.87;52.33;99214.94;342132;28;1273;-66
2022/08/04 01:15:12;;;;;;;2.05;1.75;;;;;;;23.90;51.02;99219.13;341818;28;1520;-66
2022/08/04 01:15:53;;;;;;;2.10;1.65;;;;;;;23.88;50.78;99215.78;341233;28;1054;-66
2022/08/04 01:16:15;;;;;;;2.90;1.75;;;;;;;23.86;51.08;99221.22;341597;28;1947;-66
2022/08/04 01:16:33;;;;;;;2.83;1.63;;;;;;;23.87;51.30;99214.94;341361;28;1939;-66
2022/08/04 01:16:51;;;;;;;2.33;1.73;;;;;;;23.84;51.90;99215.22;341942;28;1071;-66
2022/08/04 01:17:18;;;;;;;2.63;1.90;;;;;;;23.86;51.75;99218.56;342537;28;1348;-66
2022/08/04 01:17:42;;;;;;;2.22;1.80;;;;;;;23.86;51.94;99218.56;342207;28;1656;-66
2022/08/04 01:18:02;;;;;;;4.32;1.80;;;;;;;23.87;52.39;99219.44;340970;28;974;-66
2022/08/04 01:18:26;;;;;;;3.50;1.80;;;;;;;23.89;51.89;99213.00;342362;28;1401;-66
2022/08/04 01:19:19;;;;;;;2.30;1.80;;;;;;;23.90;51.79;99219.97;342471;28;1866;-66
2022/08/04 01:19:49;;;;;;;2.40;1.80;;;;;;;23.89;51.96;99215.63;340638;28;2270;-66
2022/08/04 01:20:09;;;;;;;2.90;1.73;;;;;;;23.92;51.95;99220.66;341946;28;1519;-66
2022/08/04 01:20:25;;;;;;;2.35;1.92;;;;;;;23.93;51.90;99213.53;341875;28;1793;-66
2022/08/04 01:21:10;;;;;;;1.80;1.67;;;;;;;23.96;51.85;99217.72;341411;28;1743;-66
2022/08/04 01:21:28;;;;;;;3.38;1.90;;;;;;;23.92;51.57;99212.72;341116;28;1815;-66
2022/08/04 01:21:59;;;;;;;2.17;1.80;;;;;;;23.92;51.71;99219.81;342089;28;1484;-66
2022/08/04 01:22:18;;;;;;;3.10;1.80;;;;;;;23.89;52.37;99213.00;340893;29;1182;-67
2022/08/04 01:22:30;;;;;;;2.00;1.80;;;;;;;23.89;52.15;99218.31;341767;28;1653;-66
2022/08/04 01:22:53;;;;;;;2.20;1.73;;;;;;;23.92;52.13;99220.66;341828;28;1738;-66
2022/08/04 01:23:27;;;;;;;2.92;2.00;;;;;;;23.91;52.02;99219.00;341305;28;1155;-66
2022/08/04 01:23:45;;;;;;;2.40;1.90;;;;;;;23.93;51.54;99211.72;342104;28;1798;-66
2022/08/04 01:24:27;;;;;;;2.45;1.90;;;;;;;23.91;50.76;99221.63;341892;28;1301;-66
2022/08/04 01:25:00;;;;;;;3.20;1.90;;;;;;;23.93;51.11;99213.53;341944;28;1635;-66
2022/08/04 01:25:37;;;;;;;2.53;1.80;;;;;;;23.94;52.36;99217.84;342491;28;1232;-66
2022/08/04 01:26:25;;;;;;;2.47;1.80;;;;;;;23.92;51.91;99218.03;342983;28;1931;-66
2022/08/04 01:27:05;;;;;;;2.92;1.80;;;;;;;24.01;52.52;99221.59;342260;28;1463;-66
2022/08/04 01:27:25;;;;;;;3.40;1.80;;;;;;;24.02;51.87;99217.13;342147;28;1091;-66
2022/08/04 01:28:06;;;;;;;2.13;1.80;;;;;;;23.99;50.88;99217.44;343143;28;1272;-66
2022/08/04 01:28:27;;;;;;;2.00;1.80;;;;;;;23.98;51.09;99218.41;340916;28;1592;-66
2022/08/04 01:29:03;;;;;;;2.28;1.77;;;;;;;23.97;50.91;99224.72;341917;28;1866;-66
2022/08/04 01:29:20;;;;;;;2.92;1.75;;;;;;;23.95;50.71;99221.38;340724;28;2668;-66
2022/08/04 01:29:49;;;;;;;2.92;1.70;;;;;;;23.91;51.09;99221.63;342334;28;1871;-66
2022/08/04 01:30:05;;;;;;;2.70;2.00;;;;;;;23.89;51.12;99220.94;341391;28;1642;-66
2022/08/04 01:30:19;;;;;;;2.60;1.83;;;;;;;23.89;51.25;99213.00;341116;28;1066;-66
2022/08/04 01:30:32;;;;;;;2.05;1.70;;;;;;;23.92;51.37;99223.34;341169;28;1114;-66
2022/08/04 01:30:48;;;;;;;1.70;1.60;;;;;;;23.91;51.25;99224.28;341221;28;1068;-66
2022/08/04 01:31:10;;;;;;;1.73;1.63;;;;;;;23.93;50.84;99222.34;341729;28;1209;-67
2022/08/04 01:31:32;;;;;;;2.40;1.90;;;;;;;23.92;51.13;99212.72;341601;28;2082;-66
2022/08/04 01:32:01;;;;;;;3.05;1.90;;;;;;;23.93;50.84;99214.38;340865;28;985;-66
2022/08/04 01:32:20;;;;;;;2.63;1.88;;;;;;;23.95;50.96;99216.88;341511;28;1709;-66
2022/08/04 01:32:43;;;;;;;2.85;1.90;;;;;;;23.95;51.35;99216.06;342180;28;1268;-66
2022/08/04 01:33:03;;;;;;;3.20;1.73;;;;;;;23.97;51.33;99219.41;341358;28;1845;-67
2022/08/04 01:33:17;;;;;;;2.80;1.83;;;;;;;23.96;51.20;99223.84;342262;28;1066;-66
2022/08/04 01:33:32;;;;;;;2.60;1.95;;;;;;;23.97;51.17;99219.41;341404;28;2090;-66
2022/08/04 01:34:08;;;;;;;2.80;1.70;;;;;;;23.99;50.63;99215.59;342108;28;1685;-66
2022/08/04 01:34:21;;;;;;;2.13;1.70;;;;;;;24.00;51.05;99209.28;341484;28;2152;-66
2022/08/04 01:34:41;;;;;;;2.42;1.73;;;;;;;24.01;50.92;99218.13;341539;28;2383;-66
2022/08/04 01:35:02;;;;;;;2.40;1.95;;;;;;;23.99;51.46;99212.13;343509;28;1357;-66
2022/08/04 01:35:35;;;;;;;3.40;1.80;;;;;;;23.96;51.74;99217.72;342695;28;1815;-66
2022/08/04 01:36:05;;;;;;;2.53;1.80;;;;;;;23.96;51.68;99220.38;342674;28;1260;-66
2022/08/04 01:36:22;;;;;;;3.13;1.90;;;;;;;23.96;52.32;99223.03;343347;28;1063;-66
2022/08/04 01:36:35;;;;;;;3.53;1.85;;;;;;;23.98;51.43;99215.75;342413;28;1771;-66
2022/08/04 01:36:59;;;;;;;2.35;1.70;;;;;;;23.97;51.60;99214.09;343696;28;1390;-66
2022/08/04 01:37:19;;;;;;;2.50;1.80;;;;;;;24.00;51.86;99219.09;341181;28;1436;-66
2022/08/04 01:38:02;;;;;;;2.35;1.90;;;;;;;24.02;51.62;99223.25;341540;28;1801;-66
2022/08/04 01:38:37;;;;;;;2.33;1.85;;;;;;;23.99;51.40;99217.44;340713;29;1055;-66
2022/08/04 01:38:52;;;;;;;4.22;2.00;;;;;;;24.00;51.67;99213.78;341870;28;1224;-66
2022/08/04 01:39:43;;;;;;;2.58;1.85;;;;;;;24.01;51.93;99210.16;341117;28;1584;-66
2022/08/04 01:40:06;;;;;;;3.00;1.70;;;;;;;24.02;50.76;99211.81;342361;28;1270;-66
2022/08/04 01:40:20;;;;;;;2.65;1.85;;;;;;;24.01;51.14;99215.47;342333;28;1072;-66
2022/08/04 01:40:33;;;;;;;2.20;1.70;;;;;;;24.00;50.93;99214.59;342236;28;1837;-66
2022/08/04 01:40:46;;;;;;;2.35;1.77;;;;;;;23.99;51.42;99220.09;342261;28;1241;-66
2022/08/04 01:41:03;;;;;;;3.15;1.90;;;;;;;23.97;51.52;99219.41;342444;28;1320;-66
2022/08/04 01:41:18;;;;;;;3.63;1.85;;;;;;;23.96;51.08;99212.41;341024;28;1023;-66
2022/08/04 01:41:43;;;;;;;3.70;2.03;;;;;;;23.97;51.40;99216.75;341473;28;1041;-66
2022/08/04 01:42:11;;;;;;;4.05;1.75;;;;;;;23.94;51.45;99215.19;341889;28;1615;-66
2022/08/04 01:42:25;;;;;;;2.85;1.70;;;;;;;23.96;51.36;99215.06;342445;28;1262;-67
2022/08/04 01:42:44;;;;;;;3.58;1.77;;;;;;;23.92;51.56;99218.03;341707;28;1771;-66
2022/08/04 01:42:59;;;;;;;3.03;1.80;;;;;;;23.92;51.69;99217.16;341384;28;1573;-67
2022/08/04 01:43:13;;;;;;;3.78;1.80;;;;;;;23.90;51.05;99214.69;341575;28;1892;-67
2022/08/04 01:43:27;;;;;;;3.78;1.80;;;;;;;23.92;51.28;99210.06;342244;28;1158;-66
2022/08/04 01:43:42;;;;;;;2.50;1.80;;;;;;;23.93;51.00;99214.38;342550;28;1058;-66
2022/08/04 01:43:55;;;;;;;3.35;2.03;;;;;;;23.95;51.29;99218.72;342076;28;1731;-66
2022/08/04 01:44:08;;;;;;;3.45;2.10;;;;;;;23.96;51.31;99217.72;342270;28;1057;-67
2022/08/04 01:44:22;;;;;;;3.28;1.92;;;;;;;23.98;50.87;99215.75;342381;28;1099;-66
2022/08/04 01:44:35;;;;;;;2.08;1.80;;;;;;;23.98;50.88;99213.09;342614;28;1045;-66
2022/08/04 01:44:49;;;;;;;2.03;1.80;;;;;;;23.97;50.94;99216.75;342326;28;1268;-66
2022/08/04 01:45:08;;;;;;;2.63;1.73;;;;;;;23.99;51.01;99222.75;342201;28;1343;-66
2022/08/04 01:45:23;;;;;;;2.30;1.90;;;;;;;23.98;50.89;99215.75;341531;28;1857;-66
2022/08/04 01:45:36;;;;;;;2.22;1.80;;;;;;;23.98;51.17;99218.41;342092;28;1237;-66
2022/08/04 01:45:57;;;;;;;2.85;1.80;;;;;;;23.97;51.01;99219.41;341850;28;1853;-66
2022/08/04 01:46:12;;;;;;;3.83;1.90;;;;;;;23.93;50.98;99217.03;341229;28;2121;-66
2022/08/04 01:46:25;;;;;;;3.47;1.65;;;;;;;23.92;51.25;99220.66;340777;28;1817;-66
2022/08/04 01:46:38;;;;;;;2.92;1.70;;;;;;;23.91;50.94;99216.34;341574;28;1853;-66
2022/08/04 01:46:51;;;;;;;3.38;1.95;;;;;;;23.93;51.29;99214.38;341342;28;2359;-66
2022/08/04 01:47:05;;;;;;;4.45;2.10;;;;;;;23.93;50.74;99219.69;340512;29;1254;-66
2022/08/04 01:47:20;;;;;;;4.53;1.98;;;;;;;23.96;50.95;99217.72;340683;28;1298;-66